METAR stanice u blizini

 

LYBE - Beograd / Surčin, Srbija
Ažurirano: 29/10/2020 20:30
Mist, Delimično oblačno
Mist, Delimično oblačno
 Pravac vetra varies
Vetar: varies 4 km/h
Temperatura: 12°C
Tačka rose: 12°C
Vlažnost: 100%
Pritisak: 1020 hPa
Pregled: Mist
Oblaci: Partly Cloudy
Vidljivost: 5 km
Cloud details: Few Clouds 305 m
Partly Cloudy 1006 m
2020/10/29 19:30 LYBE 291930Z VRB02KT 5000 BR FEW010 SCT033 12/12 Q1020 NOSIG
LYBT - Beograd / Batajnica, Srbija
Ažurirano: 29/10/2020 20:30
Mist, Delimično oblačno
Mist, Delimično oblačno
 Pravac vetra ZSZ
Vetar: ZSZ 7 km/h
Temperatura: 11°C
Tačka rose: 11°C
Vlažnost: 100%
Pritisak: 1020 hPa
Pregled: Mist
Oblaci: Partly Cloudy
Vidljivost: 5 km
Cloud details: Partly Cloudy 305 m
2020/10/29 19:30 LYBT 291930Z 30004KT 5000 BR SCT010 11/11 Q1020 NOSIG
LYVR - Vršac, Srbija
Ažurirano: 29/10/2020 20:30
Mist, Oblačno
Mist, Oblačno
 Pravac vetra SI
Vetar: SI 6 km/h
Temperatura: 12°C
Tačka rose: 10°C
Vlažnost: 88%
Pritisak: 1019 hPa
Pregled: Mist
Oblaci: Oblačno
Vidljivost: 5 km
Cloud details: Mostly Cloudy 183 m
Oblačno 1311 m
2020/10/29 19:30 LYVR 291930Z AUTO 04003KT 4700 BR BKN006/// OVC043/// 12/10 Q1019
 
LYKV - Lađevci, Srbija
Ažurirano: 29/10/2020 20:30
Mostly Cloudy
Mostly Cloudy
 Pravac vetra calm
Vetar: Tišina
Temperatura: 12°C
Tačka rose: 12°C
Vlažnost: 100%
Pritisak: 1019 hPa
Oblaci: Mostly Cloudy
Vidljivost: 7 km
Cloud details: Mostly Cloudy 1006 m
2020/10/29 19:30 LYKV 291930Z 00000KT 7000 BKN033 12/12 Q1019 NOSIG
LYNI - Niš, Srbija
Ažurirano: 29/10/2020 20:30
Partly Cloudy
Partly Cloudy
 Pravac vetra SSZ
Vetar: SSZ 7 km/h
Temperatura: 13°C
Tačka rose: 9°C
Vlažnost: 77%
Pritisak: 1018 hPa
Oblaci: Partly Cloudy
Vidljivost: 10 km
Cloud details: Partly Cloudy 1219 m
2020/10/29 19:30 LYNI 291930Z 33004KT 230V010 9999 SCT040 13/09 Q1018 NOSIG
BKPR - Priština, Srbija
Ažurirano: 29/10/2020 20:30
Vedro
Vedro
 Pravac vetra varies
Vetar: varies 4 km/h
Temperatura: 10°C
Tačka rose: 6°C
Vlažnost: 76%
Pritisak: 1018 hPa
Pregled: Vedro
Vidljivost: greater than 10 km
2020/10/29 19:30 BKPR 291930Z VRB02KT CAVOK 10/06 Q1018 NOSIG
 
LHPP - Pecs / Pogany, Hungary
Ažurirano: 29/10/2020 18:45
NOT Current
Mostly Cloudy
Mostly Cloudy
 Pravac vetra SSZ
Vetar: SSZ 9 km/h
Temperatura: 11°C
Tačka rose: 10°C
Vlažnost: 94%
Pritisak: 1020 hPa
Oblaci: Mostly Cloudy
Vidljivost: 8 km
Cloud details: Few Clouds 396 m
Partly Cloudy 792 m
Mostly Cloudy 3048 m
2020/10/29 17:45 LHPP 291745Z 34005KT 8000 FEW013 SCT026 BKN100 11/10 Q1020 RERA
LHUD - Szeged, Hungary
Ažurirano: 04/07/2019 01:45
NOT Current
Vedro
Vedro
 Pravac vetra S
Vetar: S 7 km/h
Temperatura: 18°C
Tačka rose: 13°C
Vlažnost: 73%
Pritisak: 1019 hPa
Pregled: Vedro
Vidljivost: greater than 10 km
2019/07/03 23:45 LHUD 032345Z 35004KT CAVOK 18/13 Q1019
LRTR - Timisoara, Romania
Ažurirano: 29/10/2020 20:30
Padavine, Mist, Oblačno
Padavine, Mist, Oblačno
 Pravac vetra Z
Vetar: Z 7 km/h
Temperatura: 11°C
Tačka rose: 11°C
Vlažnost: 100%
Pritisak: 1019 hPa
Pregled: Padavine, Mist
Oblaci: Oblačno
Vidljivost: 4 km
Cloud details: Partly Cloudy 244 m
Mostly Cloudy 610 m
Oblačno 1372 m
2020/10/29 19:30 LRTR 291930Z 28004KT 3500 RA BR SCT008 BKN020 OVC045 11/11 Q1019 R11/290095
 
LRCV - Craiova, Romania
Ažurirano: 29/10/2020 20:30
Partly Cloudy
Partly Cloudy
 Pravac vetra J
Vetar: J 7 km/h
Temperatura: 11°C
Tačka rose: 10°C
Vlažnost: 94%
Pritisak: 1016 hPa
Oblaci: Partly Cloudy
Vidljivost: 6 km
2020/10/29 19:30 LRCV 291930Z 19004KT 6000 NSC 11/10 Q1016
LBSF - Sofia, Bulgaria
Ažurirano: 29/10/2020 20:30
Mist, Pretežno oblačno
Mist, Pretežno oblačno
 Pravac vetra varies
Vetar: varies 4 km/h
Temperatura: 9°C
Tačka rose: 8°C
Vlažnost: 94%
Pritisak: 1018 hPa
Pregled: Mist
Oblaci: Mostly Cloudy
Vidljivost: 5 km
Cloud details: Mostly Cloudy 1006 m
2020/10/29 19:30 LBSF 291930Z VRB02KT 5000 BR BKN033 09/08 Q1018 TEMPO 2000 BR
LWSK - Skoplje, Makedonija
Ažurirano: 29/10/2020 20:30
Vedro
Vedro
 Pravac vetra IJI
Vetar: IJI 4 km/h
Temperatura: 9°C
Tačka rose: 8°C
Vlažnost: 94%
Pritisak: 1018 hPa
Pregled: Vedro
Vidljivost: greater than 10 km
2020/10/29 19:30 LWSK 291930Z 11002KT CAVOK 09/08 Q1018 NOSIG
 
LYPG - Podgorica, Crna Gora
Ažurirano: 29/10/2020 20:30
Few Clouds
Few Clouds
 Pravac vetra SSI
Vetar: SSI 4 km/h
Temperatura: 15°C
Tačka rose: 11°C
Vlažnost: 77%
Pritisak: 1018 hPa
Oblaci: Few Clouds
Vidljivost: 10 km
Cloud details: Few Clouds 1524 m
2020/10/29 19:30 LYPG 291930Z 03002KT 9999 FEW050 15/11 Q1018 NOSIG
LQSA - Sarajevo, Bosna i Hercegovina
Ažurirano: 29/10/2020 20:30
Mostly Cloudy
Mostly Cloudy
 Pravac vetra varies
Vetar: varies 4 km/h
Temperatura: 10°C
Tačka rose: 10°C
Vlažnost: 100%
Pritisak: 1020 hPa
Oblaci: Mostly Cloudy
Vidljivost: 7 km
Cloud details: Few Clouds 762 m
Mostly Cloudy 1128 m
2020/10/29 19:30 LQSA 291930Z VRB02KT 7000 FEW025 BKN037 10/10 Q1020
LDOS - Osijek, Hrvatksa
Ažurirano: 29/10/2020 20:30
Slaba kiša, Mist, Oblačno
Slaba kiša, Mist, Oblačno
 Pravac vetra SZ
Vetar: SZ 15 km/h
Temperatura: 12°C
Tačka rose: 11°C
Vlažnost: 94%
Pritisak: 1021 hPa
Pregled: Slaba kiša, Mist
Oblaci: Oblačno
Vidljivost: 4 km
Cloud details: Mostly Cloudy 213 m
Oblačno 701 m
2020/10/29 19:30 LDOS 291930Z 31008KT 4000 -RA BR BKN007 OVC023 12/11 Q1021